createdAt,value
2023-06-04T00:00:54.388Z,102164.06
2023-06-04T00:02:56.715Z,102165.59
2023-06-04T00:04:58.950Z,102153.59
2023-06-04T00:07:01.142Z,102149.31
2023-06-04T00:09:03.267Z,102150.75
2023-06-04T00:11:05.856Z,102151.50
2023-06-04T00:13:08.403Z,102151.41
2023-06-04T00:15:11.397Z,102156.81
2023-06-04T00:17:13.451Z,102158.03
2023-06-04T00:19:15.752Z,102153.28
2023-06-04T00:21:17.941Z,102155.31
2023-06-04T00:23:20.128Z,102151.97
2023-06-04T00:25:22.419Z,102152.41
2023-06-04T00:27:24.532Z,102161.44
2023-06-04T00:29:26.748Z,102159.41
2023-06-04T00:31:29.021Z,102157.13
2023-06-04T00:33:31.210Z,102158.25
2023-06-04T00:35:33.917Z,102161.63
2023-06-04T00:37:36.005Z,102161.84
2023-06-04T00:39:38.235Z,102160.66
2023-06-04T00:41:40.544Z,102160.66
2023-06-04T00:43:47.127Z,102163.09
2023-06-04T00:45:49.532Z,102165.63
2023-06-04T00:47:52.175Z,102162.34
2023-06-04T00:49:57.957Z,102163.16
2023-06-04T00:52:00.979Z,102168.41
2023-06-04T00:54:09.138Z,102172.72
2023-06-04T00:56:11.280Z,102167.50
2023-06-04T00:58:14.200Z,102166.38
2023-06-04T01:00:17.407Z,102172.69
2023-06-04T01:02:24.298Z,102167.44
2023-06-04T01:04:33.458Z,102164.91
2023-06-04T01:06:36.287Z,102172.47
2023-06-04T01:08:40.180Z,102159.41
2023-06-04T01:10:48.569Z,102169.16
2023-06-04T01:12:50.758Z,102167.94
2023-06-04T01:14:52.980Z,102161.88
2023-06-04T01:17:02.875Z,102166.75
2023-06-04T01:19:12.128Z,102158.13
2023-06-04T01:21:19.872Z,102163.97
2023-06-04T01:23:25.633Z,102165.56
2023-06-04T01:25:34.714Z,102155.03
2023-06-04T01:27:37.453Z,102157.53
2023-06-04T01:29:39.462Z,102160.19
2023-06-04T01:31:41.668Z,102156.56
2023-06-04T01:33:43.818Z,102152.22
2023-06-04T01:35:45.959Z,102152.22
2023-06-04T01:37:48.650Z,102152.81
2023-06-04T01:39:50.554Z,102151.16
2023-06-04T01:41:52.514Z,102152.16
2023-06-04T01:43:56.725Z,102151.19
2023-06-04T01:45:58.944Z,102149.38
2023-06-04T01:48:04.251Z,102142.19
2023-06-04T01:50:10.477Z,102143.03
2023-06-04T01:52:12.785Z,102147.44
2023-06-04T01:54:14.756Z,102139.34
2023-06-04T01:56:16.647Z,102151.53
2023-06-04T01:58:23.912Z,102141.19
2023-06-04T02:00:25.892Z,102138.28
2023-06-04T02:02:28.261Z,102145.34
2023-06-04T02:04:30.175Z,102145.31
2023-06-04T02:06:32.490Z,102136.63
2023-06-04T02:08:35.456Z,102147.75
2023-06-04T02:10:37.352Z,102149.34
2023-06-04T02:12:41.576Z,102149.31
2023-06-04T02:14:46.105Z,102146.63
2023-06-04T02:16:51.125Z,102141.38
2023-06-04T02:18:53.473Z,102141.38
2023-06-04T02:20:58.044Z,102138.53
2023-06-04T02:23:00.084Z,102137.72
2023-06-04T02:25:04.005Z,102148.03
2023-06-04T02:27:07.707Z,102146.91
2023-06-04T02:29:09.767Z,102151.50
2023-06-04T02:31:11.761Z,102148.94
2023-06-04T02:33:14.432Z,102145.16
2023-06-04T02:35:16.455Z,102143.84
2023-06-04T02:37:18.549Z,102145.47
2023-06-04T02:39:21.254Z,102146.22
2023-06-04T02:41:24.204Z,102144.81
2023-06-04T02:43:28.402Z,102150.81
2023-06-04T02:45:30.353Z,102154.25
2023-06-04T02:47:32.413Z,102149.25
2023-06-04T02:49:34.370Z,102155.16
2023-06-04T02:51:36.208Z,102150.53
2023-06-04T02:53:38.331Z,102153.03
2023-06-04T02:55:42.926Z,102152.22
2023-06-04T02:57:45.056Z,102153.03
2023-06-04T02:59:46.918Z,102155.13
2023-06-04T03:01:49.619Z,102147.53
2023-06-04T03:03:52.101Z,102149.91
2023-06-04T03:05:55.090Z,102146.53
2023-06-04T03:07:58.567Z,102152.00
2023-06-04T03:10:00.839Z,102151.28
2023-06-04T03:12:03.086Z,102150.38
2023-06-04T03:14:04.947Z,102147.78
2023-06-04T03:16:10.419Z,102148.63
2023-06-04T03:18:12.715Z,102150.59
2023-06-04T03:20:14.736Z,102151.47
2023-06-04T03:22:19.010Z,102156.16
2023-06-04T03:24:21.236Z,102152.63
2023-06-04T03:26:23.162Z,102160.88
2023-06-04T03:28:27.056Z,102150.59
2023-06-04T03:30:29.049Z,102152.56
2023-06-04T03:32:31.135Z,102155.00
2023-06-04T03:34:35.541Z,102150.03
2023-06-04T03:36:39.220Z,102149.44
2023-06-04T03:38:41.226Z,102148.63
2023-06-04T03:40:43.897Z,102141.25
2023-06-04T03:42:45.969Z,102150.22
2023-06-04T03:44:47.913Z,102149.25
2023-06-04T03:46:49.951Z,102146.63
2023-06-04T03:48:51.931Z,102148.28
2023-06-04T03:50:56.021Z,102152.19
2023-06-04T03:52:57.998Z,102147.28
2023-06-04T03:55:02.661Z,102150.91
2023-06-04T03:57:04.813Z,102151.78
2023-06-04T03:59:06.696Z,102152.91
2023-06-04T04:01:12.008Z,102149.88
2023-06-04T04:03:14.046Z,102143.91
2023-06-04T04:05:18.537Z,102140.44
2023-06-04T04:07:22.194Z,102153.47
2023-06-04T04:09:26.205Z,102157.31
2023-06-04T04:11:28.105Z,102150.47
2023-06-04T04:13:30.090Z,102156.25
2023-06-04T04:15:31.989Z,102156.88
2023-06-04T04:17:34.180Z,102149.19
2023-06-04T04:19:36.250Z,102155.69
2023-06-04T04:21:38.872Z,102147.75
2023-06-04T04:23:42.268Z,102152.59
2023-06-04T04:25:45.951Z,102152.28
2023-06-04T04:27:49.713Z,102152.47
2023-06-04T04:29:51.655Z,102149.97
2023-06-04T04:31:53.541Z,102155.03
2023-06-04T04:33:57.101Z,102156.25
2023-06-04T04:36:01.065Z,102150.78
2023-06-04T04:38:04.799Z,102156.47
2023-06-04T04:40:11.946Z,102156.81
2023-06-04T04:42:13.927Z,102158.13
2023-06-04T04:44:15.859Z,102153.56
2023-06-04T04:46:18.062Z,102160.34
2023-06-04T04:48:20.016Z,102157.13
2023-06-04T04:50:22.032Z,102158.28
2023-06-04T04:52:24.111Z,102158.81
2023-06-04T04:54:26.017Z,102160.56
2023-06-04T04:56:28.415Z,102164.31
2023-06-04T04:58:30.611Z,102169.25
2023-06-04T05:00:32.487Z,102164.06
2023-06-04T05:02:35.828Z,102166.91
2023-06-04T05:04:38.008Z,102162.22
2023-06-04T05:06:39.969Z,102162.06
2023-06-04T05:08:43.350Z,102161.91
2023-06-04T05:10:45.674Z,102163.84
2023-06-04T05:12:52.942Z,102163.66
2023-06-04T05:14:56.855Z,102158.28
2023-06-04T05:16:58.916Z,102155.91
2023-06-04T05:19:01.568Z,102151.78
2023-06-04T05:21:03.944Z,102151.16
2023-06-04T05:23:06.193Z,102140.84
2023-06-04T05:25:09.673Z,102148.31
2023-06-04T05:27:11.556Z,102154.34
2023-06-04T05:29:13.606Z,102157.06
2023-06-04T05:31:16.974Z,102159.31
2023-06-04T05:33:19.500Z,102157.66
2023-06-04T05:35:21.616Z,102157.13
2023-06-04T05:37:25.020Z,102157.16
2023-06-04T05:39:26.976Z,102158.00
2023-06-04T05:41:29.073Z,102158.00
2023-06-04T05:43:31.178Z,102156.09
2023-06-04T05:45:37.548Z,102158.56
2023-06-04T05:47:39.541Z,102163.16
2023-06-04T05:49:41.559Z,102163.94
2023-06-04T05:51:43.516Z,102165.56
2023-06-04T05:53:45.469Z,102164.16
2023-06-04T05:55:47.401Z,102167.22
2023-06-04T05:57:52.677Z,102171.75
2023-06-04T05:59:54.539Z,102164.03
2023-06-04T06:01:56.580Z,102169.09
2023-06-04T06:03:58.584Z,102161.41
2023-06-04T06:06:02.317Z,102165.78
2023-06-04T06:08:04.402Z,102179.25
2023-06-04T06:10:07.684Z,102167.81
2023-06-04T06:12:09.548Z,102167.13
2023-06-04T06:14:11.541Z,102173.91
2023-06-04T06:16:13.662Z,102172.25
2023-06-04T06:18:16.050Z,102162.97
2023-06-04T06:20:19.162Z,102170.91
2023-06-04T06:22:23.794Z,102170.28
2023-06-04T06:24:26.487Z,102161.28
2023-06-04T06:26:28.577Z,102157.31
2023-06-04T06:28:30.779Z,102163.19
2023-06-04T06:30:32.780Z,102158.97
2023-06-04T06:32:34.764Z,102162.66
2023-06-04T06:34:39.322Z,102164.94
2023-06-04T06:36:41.339Z,102171.94
2023-06-04T06:38:43.254Z,102166.81
2023-06-04T06:40:45.277Z,102168.81
2023-06-04T06:42:51.454Z,102167.81
2023-06-04T06:44:53.418Z,102168.13
2023-06-04T06:46:55.464Z,102173.22
2023-06-04T06:48:58.533Z,102168.03
2023-06-04T06:51:00.719Z,102169.22
2023-06-04T06:53:04.022Z,102171.63
2023-06-04T06:55:06.682Z,102177.06
2023-06-04T06:57:10.149Z,102179.91
2023-06-04T06:59:12.365Z,102175.25
2023-06-04T07:01:14.882Z,102172.56
2023-06-04T07:03:17.074Z,102168.59
2023-06-04T07:05:19.124Z,102165.38
2023-06-04T07:07:21.064Z,102170.41
2023-06-04T07:09:23.054Z,102171.19
2023-06-04T07:11:26.977Z,102165.66
2023-06-04T07:13:29.233Z,102168.75
2023-06-04T07:15:31.403Z,102163.13
2023-06-04T07:17:35.973Z,102165.78
2023-06-04T07:19:38.004Z,102165.53
2023-06-04T07:21:39.995Z,102166.28
2023-06-04T07:23:42.064Z,102169.97
2023-06-04T07:25:44.260Z,102166.69
2023-06-04T07:27:46.476Z,102173.81
2023-06-04T07:29:48.679Z,102176.59
2023-06-04T07:31:50.938Z,102177.41
2023-06-04T07:33:52.971Z,102180.28
2023-06-04T07:35:55.234Z,102176.91
2023-06-04T07:37:57.394Z,102186.50
2023-06-04T07:39:59.529Z,102175.41
2023-06-04T07:42:01.640Z,102180.03
2023-06-04T07:44:03.734Z,102180.94
2023-06-04T07:46:06.561Z,102185.25
2023-06-04T07:48:12.030Z,102176.88
2023-06-04T07:50:14.374Z,102176.88
2023-06-04T07:52:16.735Z,102184.94
2023-06-04T07:54:21.782Z,102189.44
2023-06-04T07:56:24.170Z,102183.44
2023-06-04T07:58:26.725Z,102183.34
2023-06-04T08:00:32.100Z,102182.88
2023-06-04T08:02:34.474Z,102188.28
2023-06-04T08:04:36.893Z,102177.91
2023-06-04T08:06:41.106Z,102179.75
2023-06-04T08:08:47.067Z,102185.72
2023-06-04T08:10:51.651Z,102176.47
2023-06-04T08:12:53.771Z,102180.72
2023-06-04T08:14:58.435Z,102179.75
2023-06-04T08:17:00.682Z,102177.59
2023-06-04T08:19:02.826Z,102174.25
2023-06-04T08:21:05.075Z,102169.25
2023-06-04T08:23:07.368Z,102175.47
2023-06-04T08:25:11.069Z,102173.94
2023-06-04T08:27:13.491Z,102169.78
2023-06-04T08:29:15.684Z,102167.25
2023-06-04T08:31:18.207Z,102166.59
2023-06-04T08:33:20.352Z,102163.19
2023-06-04T08:35:22.542Z,102165.81
2023-06-04T08:37:25.904Z,102157.41
2023-06-04T08:39:28.219Z,102162.59
2023-06-04T08:41:36.203Z,102163.66
2023-06-04T08:43:40.826Z,102158.25
2023-06-04T08:45:46.128Z,102167.28
2023-06-04T08:47:52.402Z,102160.59
2023-06-04T08:50:00.296Z,102162.47
2023-06-04T08:52:02.736Z,102167.88
2023-06-04T08:54:06.957Z,102165.34
2023-06-04T08:56:09.627Z,102168.13
2023-06-04T08:58:14.112Z,102169.13
2023-06-04T09:00:17.997Z,102170.22
2023-06-04T09:02:20.188Z,102165.88
2023-06-04T09:04:22.634Z,102159.16
2023-06-04T09:06:27.348Z,102154.16
2023-06-04T09:08:33.449Z,102164.78
2023-06-04T09:10:37.651Z,102163.31
2023-06-04T09:12:46.114Z,102163.50
2023-06-04T09:14:49.341Z,102166.94
2023-06-04T09:16:53.460Z,102173.13
2023-06-04T09:18:57.282Z,102173.41
2023-06-04T09:21:06.799Z,102170.81
2023-06-04T09:23:14.102Z,102168.50
2023-06-04T09:25:22.903Z,102174.00
2023-06-04T09:27:27.041Z,102166.38
2023-06-04T09:29:29.131Z,102163.06
2023-06-04T09:31:38.073Z,102171.03
2023-06-04T09:33:46.847Z,102162.50
2023-06-04T09:35:55.773Z,102168.47
2023-06-04T09:37:58.762Z,102164.28
2023-06-04T09:40:01.849Z,102158.28
2023-06-04T09:42:04.439Z,102161.78
2023-06-04T09:44:07.280Z,102151.47
2023-06-04T09:46:12.600Z,102157.59
2023-06-04T09:48:24.126Z,102153.34
2023-06-04T09:50:28.339Z,102163.09
2023-06-04T09:52:37.506Z,102157.03
2023-06-04T09:54:40.682Z,102161.44
2023-06-04T09:56:46.316Z,102162.38
2023-06-04T09:58:51.568Z,102159.88
2023-06-04T10:00:57.069Z,102161.66
2023-06-04T10:03:02.582Z,102158.28
2023-06-04T10:05:06.721Z,102160.97
2023-06-04T10:07:11.830Z,102159.25
2023-06-04T10:09:15.591Z,102166.22
2023-06-04T10:11:27.277Z,102156.72
2023-06-04T10:13:32.696Z,102165.47
2023-06-04T10:15:37.493Z,102152.41
2023-06-04T10:17:40.569Z,102159.44
2023-06-04T10:19:46.105Z,102155.97
2023-06-04T10:21:51.096Z,102155.97
2023-06-04T10:23:53.527Z,102160.31
2023-06-04T10:25:59.106Z,102160.31
2023-06-04T10:28:02.387Z,102159.44
2023-06-04T10:30:06.341Z,102159.44
2023-06-04T10:32:08.852Z,102155.91
2023-06-04T10:34:11.214Z,102165.53
2023-06-04T10:36:18.084Z,102155.00
2023-06-04T10:38:21.968Z,102152.38
2023-06-04T10:40:34.591Z,102153.16
2023-06-04T10:42:41.011Z,102160.13
2023-06-04T10:44:47.840Z,102155.75
2023-06-04T10:46:50.339Z,102159.22
2023-06-04T10:48:53.813Z,102156.59
2023-06-04T10:50:55.955Z,102166.19
2023-06-04T10:52:59.699Z,102170.53
2023-06-04T10:55:06.285Z,102160.03
2023-06-04T10:57:12.692Z,102155.59
2023-06-04T10:59:16.731Z,102158.97
2023-06-04T11:01:27.994Z,102149.19
2023-06-04T11:03:37.303Z,102157.22
2023-06-04T11:05:41.283Z,102152.75
2023-06-04T11:07:46.428Z,102152.75
2023-06-04T11:09:50.910Z,102144.88
2023-06-04T11:11:59.301Z,102147.41
2023-06-04T11:14:07.907Z,102143.72
2023-06-04T11:16:19.899Z,102143.59
2023-06-04T11:18:23.208Z,102136.56
2023-06-04T11:20:25.908Z,102140.91
2023-06-04T11:22:28.108Z,102138.28
2023-06-04T11:24:31.337Z,102144.25
2023-06-04T11:26:36.345Z,102137.19
2023-06-04T11:28:41.564Z,102139.66
2023-06-04T11:30:43.649Z,102148.28
2023-06-04T11:32:45.883Z,102144.66
2023-06-04T11:34:47.993Z,102142.81
2023-06-04T11:36:51.015Z,102140.13
2023-06-04T11:38:59.474Z,102139.22
2023-06-04T11:41:06.321Z,102134.88
2023-06-04T11:43:12.287Z,102144.31
2023-06-04T11:45:16.210Z,102131.94
2023-06-04T11:47:18.637Z,102143.50
2023-06-04T11:49:21.790Z,102135.31
2023-06-04T11:51:24.569Z,102136.91
2023-06-04T11:53:30.010Z,102136.94
2023-06-04T11:55:33.669Z,102127.34
2023-06-04T11:57:36.236Z,102128.91
2023-06-04T11:59:38.598Z,102127.00
2023-06-04T12:01:42.578Z,102129.50
2023-06-04T12:03:44.884Z,102120.88
2023-06-04T12:05:47.161Z,102129.66
2023-06-04T12:07:52.048Z,102121.63
2023-06-04T12:09:54.493Z,102115.16
2023-06-04T12:12:01.166Z,102114.22
2023-06-04T12:14:07.422Z,102089.47
2023-06-04T12:16:09.642Z,102105.97
2023-06-04T12:18:12.264Z,102105.69
2023-06-04T12:20:14.970Z,102110.28
2023-06-04T12:22:17.118Z,102110.13
2023-06-04T12:24:19.412Z,102105.84
2023-06-04T12:26:29.930Z,102111.47
2023-06-04T12:28:32.078Z,102104.88
2023-06-04T12:30:38.344Z,102103.34
2023-06-04T12:32:41.024Z,102109.00
2023-06-04T12:34:43.228Z,102112.34
2023-06-04T12:36:45.852Z,102100.78
2023-06-04T12:38:50.976Z,102099.59
2023-06-04T12:40:53.163Z,102098.72
2023-06-04T12:42:55.572Z,102093.06
2023-06-04T12:44:57.751Z,102098.53
2023-06-04T12:47:00.011Z,102106.50
2023-06-04T12:49:02.497Z,102101.63
2023-06-04T12:51:04.612Z,102107.66
2023-06-04T12:53:06.743Z,102103.59
2023-06-04T12:55:11.827Z,102100.44
2023-06-04T12:57:14.097Z,102106.03
2023-06-04T12:59:16.375Z,102108.66
2023-06-04T13:01:18.682Z,102102.72
2023-06-04T13:03:21.141Z,102108.78
2023-06-04T13:05:23.289Z,102102.47
2023-06-04T13:07:28.159Z,102105.72
2023-06-04T13:09:31.899Z,102112.56
2023-06-04T13:11:34.499Z,102109.88
2023-06-04T13:13:37.270Z,102112.03
2023-06-04T13:15:39.494Z,102101.22
2023-06-04T13:17:41.647Z,102103.66
2023-06-04T13:19:43.937Z,102104.19
2023-06-04T13:21:46.037Z,102096.66
2023-06-04T13:23:50.113Z,102092.03
2023-06-04T13:25:53.280Z,102083.09
2023-06-04T13:27:58.913Z,102089.22
2023-06-04T13:30:01.438Z,102089.84
2023-06-04T13:32:06.211Z,102094.88
2023-06-04T13:34:22.889Z,102085.47
2023-06-04T13:36:28.831Z,102091.56
2023-06-04T13:38:31.288Z,102088.28
2023-06-04T13:40:36.248Z,102092.09
2023-06-04T13:42:38.462Z,102080.97
2023-06-04T13:44:40.677Z,102086.72
2023-06-04T13:46:43.738Z,102084.16
2023-06-04T13:48:46.299Z,102082.31
2023-06-04T13:50:48.609Z,102084.50
2023-06-04T13:52:51.156Z,102081.66
2023-06-04T13:54:53.361Z,102072.63
2023-06-04T13:56:56.480Z,102062.97
2023-06-04T13:58:58.593Z,102073.56
2023-06-04T14:01:00.808Z,102075.22
2023-06-04T14:03:03.115Z,102067.50
2023-06-04T14:05:08.031Z,102065.59
2023-06-04T14:07:10.212Z,102065.06
2023-06-04T14:09:13.988Z,102072.19
2023-06-04T14:11:16.340Z,102059.00
2023-06-04T14:13:21.400Z,102068.34
2023-06-04T14:15:23.845Z,102071.09
2023-06-04T14:17:26.066Z,102068.13
2023-06-04T14:19:28.236Z,102069.59
2023-06-04T14:21:30.488Z,102068.34
2023-06-04T14:23:32.741Z,102060.44
2023-06-04T14:25:37.721Z,102059.69
2023-06-04T14:27:39.930Z,102055.19
2023-06-04T14:29:42.059Z,102061.69
2023-06-04T14:31:46.812Z,102060.78
2023-06-04T14:33:49.386Z,102057.78
2023-06-04T14:35:51.706Z,102065.53
2023-06-04T14:37:53.918Z,102049.94
2023-06-04T14:39:56.280Z,102053.31
2023-06-04T14:41:58.497Z,102052.53
2023-06-04T14:44:00.900Z,102048.97
2023-06-04T14:46:03.264Z,102040.34
2023-06-04T14:48:14.749Z,102044.44
2023-06-04T14:50:19.748Z,102037.63
2023-06-04T14:52:24.798Z,102043.72
2023-06-04T14:54:26.995Z,102052.94
2023-06-04T14:56:29.962Z,102047.56
2023-06-04T14:58:32.458Z,102046.50
2023-06-04T15:00:37.116Z,102037.31
2023-06-04T15:02:39.343Z,102041.91
2023-06-04T15:04:45.418Z,102040.47
2023-06-04T15:06:50.669Z,102040.75
2023-06-04T15:08:55.786Z,102037.88
2023-06-04T15:11:00.190Z,102028.41
2023-06-04T15:13:02.480Z,102017.97
2023-06-04T15:15:06.902Z,102038.34
2023-06-04T15:17:09.368Z,102040.75
2023-06-04T15:19:11.579Z,102030.06
2023-06-04T15:21:13.827Z,102030.66
2023-06-04T15:23:16.692Z,102025.19
2023-06-04T15:25:18.785Z,102037.47
2023-06-04T15:27:21.241Z,102033.38
2023-06-04T15:29:23.431Z,102036.97
2023-06-04T15:31:25.645Z,102039.25
2023-06-04T15:33:27.800Z,102037.31
2023-06-04T15:35:30.684Z,102034.41
2023-06-04T15:37:32.961Z,102026.34
2023-06-04T15:39:35.096Z,102026.66
2023-06-04T15:41:37.219Z,102019.72
2023-06-04T15:43:39.442Z,102029.59
2023-06-04T15:45:41.889Z,102031.63
2023-06-04T15:47:44.071Z,102027.47
2023-06-04T15:49:48.565Z,102029.00
2023-06-04T15:51:50.766Z,102031.53
2023-06-04T15:53:53.072Z,102017.13
2023-06-04T15:55:55.322Z,102019.38
2023-06-04T15:57:57.415Z,102022.75
2023-06-04T16:00:02.090Z,102013.81
2023-06-04T16:02:04.538Z,102009.25
2023-06-04T16:04:06.747Z,102011.69
2023-06-04T16:06:09.264Z,102016.22
2023-06-04T16:08:11.752Z,102012.16
2023-06-04T16:10:13.892Z,102009.88
2023-06-04T16:12:16.455Z,102009.03
2023-06-04T16:14:18.635Z,102002.53
2023-06-04T16:16:20.855Z,102001.00
2023-06-04T16:18:23.592Z,102009.13
2023-06-04T16:20:25.697Z,102009.75
2023-06-04T16:22:27.741Z,102002.50
2023-06-04T16:24:30.023Z,101994.19
2023-06-04T16:26:32.409Z,101993.06
2023-06-04T16:28:34.652Z,102005.88
2023-06-04T16:30:37.235Z,102008.09
2023-06-04T16:32:42.682Z,101999.66
2023-06-04T16:34:47.865Z,101999.19
2023-06-04T16:36:50.047Z,101996.66
2023-06-04T16:38:52.882Z,101999.56
2023-06-04T16:40:57.219Z,101997.50
2023-06-04T16:42:59.452Z,101995.38
2023-06-04T16:45:01.745Z,102001.91
2023-06-04T16:47:04.289Z,101990.84
2023-06-04T16:49:06.651Z,102003.31
2023-06-04T16:51:08.758Z,102002.53
2023-06-04T16:53:11.501Z,101997.66
2023-06-04T16:55:17.528Z,102001.22
2023-06-04T16:57:22.586Z,101993.59
2023-06-04T16:59:28.238Z,101995.47
2023-06-04T17:01:30.442Z,101995.38
2023-06-04T17:03:32.839Z,101994.47
2023-06-04T17:05:35.092Z,101993.50
2023-06-04T17:07:37.246Z,101993.19
2023-06-04T17:09:39.582Z,101992.53
2023-06-04T17:11:41.675Z,101994.41
2023-06-04T17:13:43.942Z,101981.38
2023-06-04T17:15:48.493Z,101991.94
2023-06-04T17:17:51.443Z,101987.19
2023-06-04T17:19:53.761Z,101996.53
2023-06-04T17:21:56.045Z,101988.31
2023-06-04T17:24:01.254Z,101996.41
2023-06-04T17:26:03.764Z,101999.78
2023-06-04T17:28:05.948Z,101995.31
2023-06-04T17:30:08.900Z,101999.44
2023-06-04T17:32:12.763Z,101999.22
2023-06-04T17:34:15.015Z,101999.59
2023-06-04T17:36:17.581Z,102002.44
2023-06-04T17:38:19.797Z,102003.13
2023-06-04T17:40:23.116Z,102003.19
2023-06-04T17:42:26.214Z,101998.66
2023-06-04T17:44:28.541Z,102011.13
2023-06-04T17:46:30.929Z,102000.66
2023-06-04T17:48:33.202Z,102000.03
2023-06-04T17:50:35.344Z,102004.38
2023-06-04T17:52:37.978Z,102002.09
2023-06-04T17:54:40.222Z,101999.13
2023-06-04T17:56:42.532Z,102004.00
2023-06-04T17:58:44.722Z,102006.59
2023-06-04T18:00:46.851Z,102010.13
2023-06-04T18:02:49.234Z,102011.22
2023-06-04T18:04:52.540Z,102002.53
2023-06-04T18:06:54.687Z,102020.22
2023-06-04T18:08:57.235Z,102025.81
2023-06-04T18:10:59.982Z,102017.38
2023-06-04T18:13:02.225Z,102028.81
2023-06-04T18:15:05.567Z,102021.69
2023-06-04T18:17:07.733Z,102020.31
2023-06-04T18:19:10.701Z,102022.06
2023-06-04T18:21:13.326Z,102019.53
2023-06-04T18:23:15.530Z,102025.72
2023-06-04T18:25:17.849Z,102030.22
2023-06-04T18:27:22.447Z,102038.09
2023-06-04T18:29:24.683Z,102033.66
2023-06-04T18:31:27.104Z,102033.69
2023-06-04T18:33:29.348Z,102032.78
2023-06-04T18:35:33.400Z,102025.81
2023-06-04T18:37:35.647Z,102031.91
2023-06-04T18:39:37.830Z,102038.13
2023-06-04T18:41:39.884Z,102032.03
2023-06-04T18:43:42.095Z,102025.97
2023-06-04T18:45:44.382Z,102035.56
2023-06-04T18:47:46.716Z,102036.47
2023-06-04T18:49:48.973Z,102039.03
2023-06-04T18:51:52.183Z,102039.06
2023-06-04T18:53:54.314Z,102046.91
2023-06-04T18:55:58.523Z,102041.63
2023-06-04T18:58:00.840Z,102046.00
2023-06-04T19:00:08.721Z,102052.06
2023-06-04T19:02:11.226Z,102050.34
2023-06-04T19:04:14.514Z,102050.34
2023-06-04T19:06:16.802Z,102053.88
2023-06-04T19:08:21.972Z,102045.09
2023-06-04T19:10:24.148Z,102056.31
2023-06-04T19:12:27.607Z,102057.22
2023-06-04T19:14:29.789Z,102060.69
2023-06-04T19:16:31.890Z,102053.63
2023-06-04T19:18:33.992Z,102058.06
2023-06-04T19:20:36.090Z,102062.28
2023-06-04T19:22:38.219Z,102064.09
2023-06-04T19:24:42.521Z,102066.69
2023-06-04T19:26:46.650Z,102064.06
2023-06-04T19:28:48.694Z,102064.78
2023-06-04T19:30:52.856Z,102073.53
2023-06-04T19:32:55.031Z,102062.25
2023-06-04T19:34:57.346Z,102073.44
2023-06-04T19:36:59.436Z,102076.09
2023-06-04T19:39:01.674Z,102070.69
2023-06-04T19:41:03.763Z,102064.63
2023-06-04T19:43:05.964Z,102071.59
2023-06-04T19:45:10.839Z,102077.84
2023-06-04T19:47:13.085Z,102083.75
2023-06-04T19:49:15.816Z,102082.19
2023-06-04T19:51:17.919Z,102082.84
2023-06-04T19:53:20.187Z,102085.31
2023-06-04T19:55:25.401Z,102092.19
2023-06-04T19:57:27.630Z,102092.28
2023-06-04T19:59:30.945Z,102095.63
2023-06-04T20:01:34.490Z,102088.63
2023-06-04T20:03:37.207Z,102091.25
2023-06-04T20:05:39.417Z,102099.09
2023-06-04T20:07:41.553Z,102094.75
2023-06-04T20:09:43.759Z,102105.25
2023-06-04T20:11:46.093Z,102102.75
2023-06-04T20:13:48.424Z,102108.72
2023-06-04T20:15:50.730Z,102117.50
2023-06-04T20:17:53.004Z,102115.38
2023-06-04T20:19:56.089Z,102124.09
2023-06-04T20:21:58.238Z,102129.22
2023-06-04T20:24:00.642Z,102133.44
2023-06-04T20:26:02.818Z,102137.13
2023-06-04T20:28:05.047Z,102143.72
2023-06-04T20:30:08.233Z,102155.38
2023-06-04T20:32:10.819Z,102153.63
2023-06-04T20:34:12.898Z,102161.94
2023-06-04T20:36:15.733Z,102158.69
2023-06-04T20:38:17.828Z,102166.53
2023-06-04T20:40:19.946Z,102165.72
2023-06-04T20:42:22.330Z,102168.28
2023-06-04T20:44:24.580Z,102173.34
2023-06-04T20:46:26.844Z,102178.63
2023-06-04T20:48:29.194Z,102171.59
2023-06-04T20:50:31.871Z,102171.75
2023-06-04T20:52:33.864Z,102182.31
2023-06-04T20:54:36.734Z,102182.31
2023-06-04T20:56:38.809Z,102187.53
2023-06-04T20:58:40.879Z,102191.56
2023-06-04T21:00:43.047Z,102195.31
2023-06-04T21:02:45.313Z,102200.59
2023-06-04T21:04:47.724Z,102201.16
2023-06-04T21:06:50.403Z,102210.69
2023-06-04T21:08:52.501Z,102214.16
2023-06-04T21:10:54.679Z,102211.41
2023-06-04T21:12:56.996Z,102220.97
2023-06-04T21:14:59.164Z,102220.97
2023-06-04T21:17:01.294Z,102219.19
2023-06-04T21:19:03.432Z,102220.34
2023-06-04T21:21:05.541Z,102227.53
2023-06-04T21:23:07.764Z,102234.41
2023-06-04T21:25:10.732Z,102221.31
2023-06-04T21:27:12.963Z,102235.34
2023-06-04T21:29:15.157Z,102229.22
2023-06-04T21:31:17.398Z,102227.59
2023-06-04T21:33:21.785Z,102231.88
2023-06-04T21:35:23.892Z,102237.75
2023-06-04T21:37:26.246Z,102230.75
2023-06-04T21:39:28.622Z,102234.13
2023-06-04T21:41:30.836Z,102236.72
2023-06-04T21:43:32.946Z,102233.41
2023-06-04T21:45:35.613Z,102240.34
2023-06-04T21:47:38.755Z,102239.63
2023-06-04T21:49:40.960Z,102231.69
2023-06-04T21:51:45.314Z,102241.47
2023-06-04T21:53:47.562Z,102236.03
2023-06-04T21:55:50.176Z,102249.88
2023-06-04T21:57:52.708Z,102251.44
2023-06-04T21:59:54.981Z,102255.91
2023-06-04T22:01:58.288Z,102254.19
2023-06-04T22:04:00.555Z,102251.09
2023-06-04T22:06:02.783Z,102249.41
2023-06-04T22:08:05.124Z,102260.97
2023-06-04T22:10:08.545Z,102260.09
2023-06-04T22:12:12.163Z,102261.63
2023-06-04T22:14:14.538Z,102261.50
2023-06-04T22:16:16.942Z,102259.78
2023-06-04T22:18:21.473Z,102264.25
2023-06-04T22:20:23.751Z,102266.72
2023-06-04T22:22:25.988Z,102266.69
2023-06-04T22:24:28.156Z,102273.59
2023-06-04T22:28:38.973Z,102276.13
2023-06-04T22:30:41.067Z,102278.13
2023-06-04T22:32:43.225Z,102278.78
2023-06-04T22:34:45.377Z,102283.00
2023-06-04T22:36:47.686Z,102289.09
2023-06-04T22:38:49.906Z,102288.88
2023-06-04T22:40:52.172Z,102294.00
2023-06-04T22:42:55.896Z,102298.94
2023-06-04T22:44:57.994Z,102291.75
2023-06-04T22:47:00.399Z,102303.47
2023-06-04T22:49:02.765Z,102300.09
2023-06-04T22:51:06.383Z,102310.38
2023-06-04T22:53:09.419Z,102310.25
2023-06-04T22:55:11.845Z,102311.97
2023-06-04T22:57:13.962Z,102310.63
2023-06-04T22:59:16.248Z,102308.81
2023-06-04T23:01:18.502Z,102310.50
2023-06-04T23:03:21.003Z,102310.06
2023-06-04T23:05:23.539Z,102305.03
2023-06-04T23:07:25.735Z,102306.84
2023-06-04T23:09:27.787Z,102310.09
2023-06-04T23:11:29.932Z,102305.16
2023-06-04T23:13:32.034Z,102310.97
2023-06-04T23:15:34.644Z,102314.94
2023-06-04T23:17:37.543Z,102316.16
2023-06-04T23:19:39.730Z,102311.63
2023-06-04T23:21:41.910Z,102314.69
2023-06-04T23:23:44.118Z,102320.25
2023-06-04T23:25:46.268Z,102325.34
2023-06-04T23:27:48.434Z,102322.69